sensor_id;sensor_type;location;lat;lon;timestamp;pressure;altitude;pressure_sealevel;temperature;humidity
59787;BME280;45672;51.612;5.536;2023-03-26T00:01:27;100530.97;;;8.22;100.00
59787;BME280;45672;51.612;5.536;2023-03-26T00:03:54;100529.59;;;8.18;100.00
59787;BME280;45672;51.612;5.536;2023-03-26T00:06:24;100529.19;;;8.13;100.00
59787;BME280;45672;51.612;5.536;2023-03-26T00:08:50;100530.47;;;8.08;100.00
59787;BME280;45672;51.612;5.536;2023-03-26T00:11:18;100528.72;;;7.99;100.00
59787;BME280;45672;51.612;5.536;2023-03-26T00:13:45;100516.47;;;7.88;100.00
59787;BME280;45672;51.612;5.536;2023-03-26T00:16:12;100533.44;;;7.96;100.00
59787;BME280;45672;51.612;5.536;2023-03-26T00:18:38;100534.03;;;7.89;100.00
59787;BME280;45672;51.612;5.536;2023-03-26T00:21:05;100533.50;;;7.86;100.00
59787;BME280;45672;51.612;5.536;2023-03-26T00:23:33;100522.91;;;7.76;100.00
59787;BME280;45672;51.612;5.536;2023-03-26T00:25:59;100528.09;;;7.78;100.00
59787;BME280;45672;51.612;5.536;2023-03-26T00:28:25;100525.88;;;7.73;100.00
59787;BME280;45672;51.612;5.536;2023-03-26T00:30:59;100529.22;;;7.75;100.00
59787;BME280;45672;51.612;5.536;2023-03-26T00:33:26;100528.81;;;7.70;100.00
59787;BME280;45672;51.612;5.536;2023-03-26T00:35:53;100521.16;;;7.67;100.00
59787;BME280;45672;51.612;5.536;2023-03-26T00:38:20;100514.63;;;7.61;100.00
59787;BME280;45672;51.612;5.536;2023-03-26T00:40:47;100504.31;;;7.58;100.00
59787;BME280;45672;51.612;5.536;2023-03-26T00:43:15;100502.78;;;7.55;100.00
59787;BME280;45672;51.612;5.536;2023-03-26T00:45:47;100489.84;;;7.52;100.00
59787;BME280;45672;51.612;5.536;2023-03-26T00:48:14;100488.31;;;7.50;100.00
59787;BME280;45672;51.612;5.536;2023-03-26T00:50:40;100495.59;;;7.48;100.00
59787;BME280;45672;51.612;5.536;2023-03-26T00:53:07;100498.50;;;7.45;100.00
59787;BME280;45672;51.612;5.536;2023-03-26T00:55:34;100484.16;;;7.37;100.00
59787;BME280;45672;51.612;5.536;2023-03-26T00:58:00;100492.25;;;7.36;100.00
59787;BME280;45672;51.612;5.536;2023-03-26T01:00:30;100500.47;;;7.33;100.00
59787;BME280;45672;51.612;5.536;2023-03-26T01:03:02;100497.28;;;7.29;100.00
59787;BME280;45672;51.612;5.536;2023-03-26T01:10:50;100486.81;;;7.37;100.00
59787;BME280;45672;51.612;5.536;2023-03-26T01:13:19;100465.63;;;7.37;100.00
59787;BME280;45672;51.612;5.536;2023-03-26T01:15:46;100468.81;;;7.51;100.00
59787;BME280;45672;51.612;5.536;2023-03-26T01:18:21;100467.94;;;7.60;100.00
59787;BME280;45672;51.612;5.536;2023-03-26T01:20:51;100453.88;;;7.59;100.00
59787;BME280;45672;51.612;5.536;2023-03-26T01:23:25;100458.72;;;7.64;100.00
59787;BME280;45672;51.612;5.536;2023-03-26T01:26:02;100454.53;;;7.62;100.00
59787;BME280;45672;51.612;5.536;2023-03-26T01:28:33;100444.41;;;7.57;100.00
59787;BME280;45672;51.612;5.536;2023-03-26T01:31:23;100452.34;;;7.57;100.00
59787;BME280;45672;51.612;5.536;2023-03-26T01:34:11;100431.50;;;7.44;100.00
59787;BME280;45672;51.612;5.536;2023-03-26T01:36:58;100434.69;;;7.48;100.00
59787;BME280;45672;51.612;5.536;2023-03-26T01:39:31;100434.13;;;7.44;100.00
59787;BME280;45672;51.612;5.536;2023-03-26T01:42:08;100427.03;;;7.45;100.00
59787;BME280;45672;51.612;5.536;2023-03-26T01:45:02;100418.69;;;7.39;100.00
59787;BME280;45672;51.612;5.536;2023-03-26T01:47:24;100408.44;;;7.27;100.00
59787;BME280;45672;51.612;5.536;2023-03-26T01:49:50;100408.84;;;7.22;100.00
59787;BME280;45672;51.612;5.536;2023-03-26T01:52:19;100406.09;;;7.14;100.00
59787;BME280;45672;51.612;5.536;2023-03-26T01:54:46;100411.66;;;7.11;100.00
59787;BME280;45672;51.612;5.536;2023-03-26T02:02:38;100403.78;;;6.91;100.00
59787;BME280;45672;51.612;5.536;2023-03-26T02:05:22;100404.09;;;6.88;100.00
59787;BME280;45672;51.612;5.536;2023-03-26T02:10:31;100391.41;;;6.82;100.00
59787;BME280;45672;51.612;5.536;2023-03-26T02:12:58;100394.06;;;6.82;100.00
59787;BME280;45672;51.612;5.536;2023-03-26T02:15:24;100379.88;;;6.73;100.00
59787;BME280;45672;51.612;5.536;2023-03-26T02:17:50;100386.41;;;6.79;100.00
59787;BME280;45672;51.612;5.536;2023-03-26T02:20:17;100384.72;;;6.78;100.00
59787;BME280;45672;51.612;5.536;2023-03-26T02:22:45;100368.34;;;6.74;100.00
59787;BME280;45672;51.612;5.536;2023-03-26T02:25:14;100366.06;;;6.79;100.00
59787;BME280;45672;51.612;5.536;2023-03-26T02:27:40;100362.47;;;6.80;100.00
59787;BME280;45672;51.612;5.536;2023-03-26T02:30:08;100351.47;;;6.75;100.00
59787;BME280;45672;51.612;5.536;2023-03-26T02:32:34;100357.03;;;6.82;100.00
59787;BME280;45672;51.612;5.536;2023-03-26T02:35:00;100355.25;;;6.82;100.00
59787;BME280;45672;51.612;5.536;2023-03-26T02:37:25;100348.41;;;6.80;100.00
59787;BME280;45672;51.612;5.536;2023-03-26T02:39:51;100351.06;;;6.80;100.00
59787;BME280;45672;51.612;5.536;2023-03-26T02:42:16;100349.53;;;6.77;100.00
59787;BME280;45672;51.612;5.536;2023-03-26T02:44:41;100357.31;;;6.79;100.00
59787;BME280;45672;51.612;5.536;2023-03-26T02:47:07;100353.72;;;6.80;100.00
59787;BME280;45672;51.612;5.536;2023-03-26T02:49:32;100334.94;;;6.73;100.00
59787;BME280;45672;51.612;5.536;2023-03-26T02:52:00;100340.63;;;6.78;100.00
59787;BME280;45672;51.612;5.536;2023-03-26T02:54:25;100340.88;;;6.75;100.00
59787;BME280;45672;51.612;5.536;2023-03-26T02:56:51;100331.47;;;6.72;100.00
59787;BME280;45672;51.612;5.536;2023-03-26T02:59:16;100334.34;;;6.79;100.00
59787;BME280;45672;51.612;5.536;2023-03-26T03:01:42;100332.41;;;6.81;100.00
59787;BME280;45672;51.612;5.536;2023-03-26T03:04:11;100326.97;;;6.83;100.00
59787;BME280;45672;51.612;5.536;2023-03-26T03:06:37;100325.00;;;6.85;100.00
59787;BME280;45672;51.612;5.536;2023-03-26T03:09:03;100320.44;;;6.87;100.00
59787;BME280;45672;51.612;5.536;2023-03-26T03:11:30;100308.88;;;6.88;100.00
59787;BME280;45672;51.612;5.536;2023-03-26T03:13:55;100308.59;;;6.91;100.00
59787;BME280;45672;51.612;5.536;2023-03-26T03:16:20;100306.91;;;6.90;100.00
59787;BME280;45672;51.612;5.536;2023-03-26T03:18:46;100287.59;;;6.80;100.00
59787;BME280;45672;51.612;5.536;2023-03-26T03:21:19;100292.16;;;6.87;100.00
59787;BME280;45672;51.612;5.536;2023-03-26T03:23:44;100297.56;;;6.96;100.00
59787;BME280;45672;51.612;5.536;2023-03-26T03:26:15;100278.78;;;6.89;100.00
59787;BME280;45672;51.612;5.536;2023-03-26T03:28:41;100284.03;;;6.99;100.00
59787;BME280;45672;51.612;5.536;2023-03-26T03:31:07;100282.25;;;6.99;100.00
59787;BME280;45672;51.612;5.536;2023-03-26T03:33:34;100277.63;;;7.01;100.00
59787;BME280;45672;51.612;5.536;2023-03-26T03:36:00;100283.44;;;7.05;100.00
59787;BME280;45672;51.612;5.536;2023-03-26T03:38:25;100280.69;;;7.06;100.00
59787;BME280;45672;51.612;5.536;2023-03-26T03:40:51;100277.19;;;7.06;100.00
59787;BME280;45672;51.612;5.536;2023-03-26T03:43:18;100275.78;;;7.12;100.00
59787;BME280;45672;51.612;5.536;2023-03-26T03:45:44;100272.69;;;7.16;100.00
59787;BME280;45672;51.612;5.536;2023-03-26T03:48:09;100275.88;;;7.20;100.00
59787;BME280;45672;51.612;5.536;2023-03-26T03:50:35;100269.63;;;7.21;100.00
59787;BME280;45672;51.612;5.536;2023-03-26T03:53:01;100262.50;;;7.21;100.00
59787;BME280;45672;51.612;5.536;2023-03-26T03:55:27;100267.34;;;7.26;100.00
59787;BME280;45672;51.612;5.536;2023-03-26T03:57:53;100266.50;;;7.25;100.00
59787;BME280;45672;51.612;5.536;2023-03-26T04:00:18;100254.09;;;7.26;100.00
59787;BME280;45672;51.612;5.536;2023-03-26T04:02:44;100249.66;;;7.27;100.00
59787;BME280;45672;51.612;5.536;2023-03-26T04:05:10;100242.75;;;7.16;100.00
59787;BME280;45672;51.612;5.536;2023-03-26T04:07:36;100251.38;;;7.18;100.00
59787;BME280;45672;51.612;5.536;2023-03-26T04:10:02;100245.41;;;7.16;100.00
59787;BME280;45672;51.612;5.536;2023-03-26T04:12:28;100224.59;;;7.03;100.00
59787;BME280;45672;51.612;5.536;2023-03-26T04:14:54;100239.69;;;7.11;100.00
59787;BME280;45672;51.612;5.536;2023-03-26T04:17:20;100225.56;;;7.02;100.00
59787;BME280;45672;51.612;5.536;2023-03-26T04:19:46;100222.50;;;7.06;100.00
59787;BME280;45672;51.612;5.536;2023-03-26T04:22:12;100225.13;;;7.06;100.00
59787;BME280;45672;51.612;5.536;2023-03-26T04:24:37;100205.53;;;6.99;100.00
59787;BME280;45672;51.612;5.536;2023-03-26T04:27:08;100209.84;;;7.00;100.00
59787;BME280;45672;51.612;5.536;2023-03-26T04:29:39;100211.22;;;7.04;100.00
59787;BME280;45672;51.612;5.536;2023-03-26T04:32:21;100194.41;;;6.96;100.00
59787;BME280;45672;51.612;5.536;2023-03-26T04:34:48;100199.25;;;7.00;100.00
59787;BME280;45672;51.612;5.536;2023-03-26T04:37:35;100190.34;;;7.01;100.00
59787;BME280;45672;51.612;5.536;2023-03-26T04:40:15;100183.38;;;7.00;100.00
59787;BME280;45672;51.612;5.536;2023-03-26T04:42:41;100194.66;;;7.02;100.00
59787;BME280;45672;51.612;5.536;2023-03-26T04:45:10;100187.41;;;7.04;100.00
59787;BME280;45672;51.612;5.536;2023-03-26T04:47:35;100179.47;;;7.04;100.00
59787;BME280;45672;51.612;5.536;2023-03-26T04:50:04;100176.81;;;7.04;100.00
59787;BME280;45672;51.612;5.536;2023-03-26T04:52:31;100170.41;;;7.07;100.00
59787;BME280;45672;51.612;5.536;2023-03-26T04:54:56;100167.22;;;7.03;100.00
59787;BME280;45672;51.612;5.536;2023-03-26T04:57:38;100156.94;;;7.00;100.00
59787;BME280;45672;51.612;5.536;2023-03-26T05:00:08;100160.78;;;7.06;100.00
59787;BME280;45672;51.612;5.536;2023-03-26T05:02:39;100145.91;;;7.05;100.00
59787;BME280;45672;51.612;5.536;2023-03-26T05:05:06;100139.13;;;7.02;100.00
59787;BME280;45672;51.612;5.536;2023-03-26T05:07:31;100125.50;;;6.97;100.00
59787;BME280;45672;51.612;5.536;2023-03-26T05:09:57;100133.84;;;7.02;100.00
59787;BME280;45672;51.612;5.536;2023-03-26T05:12:22;100131.50;;;6.99;100.00
59787;BME280;45672;51.612;5.536;2023-03-26T05:14:47;100136.47;;;7.02;100.00
59787;BME280;45672;51.612;5.536;2023-03-26T05:17:13;100133.69;;;7.04;100.00
59787;BME280;45672;51.612;5.536;2023-03-26T05:19:39;100123.91;;;7.04;100.00
59787;BME280;45672;51.612;5.536;2023-03-26T05:22:05;100118.94;;;7.01;100.00
59787;BME280;45672;51.612;5.536;2023-03-26T05:24:30;100113.78;;;7.00;100.00
59787;BME280;45672;51.612;5.536;2023-03-26T05:26:56;100119.53;;;6.95;100.00
59787;BME280;45672;51.612;5.536;2023-03-26T05:29:21;100110.09;;;6.93;100.00
59787;BME280;45672;51.612;5.536;2023-03-26T05:31:48;100100.63;;;6.90;100.00
59787;BME280;45672;51.612;5.536;2023-03-26T05:34:13;100102.59;;;6.88;100.00
59787;BME280;45672;51.612;5.536;2023-03-26T05:36:39;100092.09;;;6.78;100.00
59787;BME280;45672;51.612;5.536;2023-03-26T05:39:06;100100.09;;;6.86;100.00
59787;BME280;45672;51.612;5.536;2023-03-26T05:41:33;100097.84;;;6.92;100.00
59787;BME280;45672;51.612;5.536;2023-03-26T05:43:58;100093.75;;;6.97;100.00
59787;BME280;45672;51.612;5.536;2023-03-26T05:46:24;100080.84;;;6.94;100.00
59787;BME280;45672;51.612;5.536;2023-03-26T05:48:49;100085.00;;;6.97;100.00
59787;BME280;45672;51.612;5.536;2023-03-26T05:51:16;100082.78;;;6.92;100.00
59787;BME280;45672;51.612;5.536;2023-03-26T05:53:41;100087.09;;;6.93;100.00
59787;BME280;45672;51.612;5.536;2023-03-26T05:56:07;100074.19;;;6.90;100.00
59787;BME280;45672;51.612;5.536;2023-03-26T05:58:34;100071.25;;;6.93;100.00
59787;BME280;45672;51.612;5.536;2023-03-26T06:01:07;100073.41;;;6.98;100.00
59787;BME280;45672;51.612;5.536;2023-03-26T06:03:35;100073.22;;;6.91;100.00
59787;BME280;45672;51.612;5.536;2023-03-26T06:06:01;100077.22;;;6.95;100.00
59787;BME280;45672;51.612;5.536;2023-03-26T06:08:28;100073.97;;;7.01;100.00
59787;BME280;45672;51.612;5.536;2023-03-26T06:10:58;100065.72;;;7.04;100.00
59787;BME280;45672;51.612;5.536;2023-03-26T06:13:23;100067.25;;;7.07;100.00
59787;BME280;45672;51.612;5.536;2023-03-26T06:15:49;100068.59;;;7.11;100.00
59787;BME280;45672;51.612;5.536;2023-03-26T06:18:14;100064.28;;;7.10;100.00
59787;BME280;45672;51.612;5.536;2023-03-26T06:20:40;100057.06;;;7.12;100.00
59787;BME280;45672;51.612;5.536;2023-03-26T06:23:06;100057.72;;;7.14;100.00
59787;BME280;45672;51.612;5.536;2023-03-26T06:25:31;100054.53;;;7.11;100.00
59787;BME280;45672;51.612;5.536;2023-03-26T06:27:56;100056.91;;;7.14;100.00
59787;BME280;45672;51.612;5.536;2023-03-26T06:30:21;100061.03;;;7.16;100.00
59787;BME280;45672;51.612;5.536;2023-03-26T06:32:47;100045.94;;;7.08;100.00
59787;BME280;45672;51.612;5.536;2023-03-26T06:35:12;100055.88;;;7.15;100.00
59787;BME280;45672;51.612;5.536;2023-03-26T06:37:38;100053.09;;;7.16;100.00
59787;BME280;45672;51.612;5.536;2023-03-26T06:40:04;100051.28;;;7.17;100.00
59787;BME280;45672;51.612;5.536;2023-03-26T06:42:30;100050.81;;;7.21;100.00
59787;BME280;45672;51.612;5.536;2023-03-26T06:44:55;100049.00;;;7.22;100.00
59787;BME280;45672;51.612;5.536;2023-03-26T06:47:21;100053.09;;;7.16;100.00
59787;BME280;45672;51.612;5.536;2023-03-26T06:49:46;100037.84;;;7.10;100.00
59787;BME280;45672;51.612;5.536;2023-03-26T06:52:11;100027.50;;;6.99;100.00
59787;BME280;45672;51.612;5.536;2023-03-26T06:54:37;100047.59;;;7.10;100.00
59787;BME280;45672;51.612;5.536;2023-03-26T06:57:02;100046.59;;;7.11;100.00
59787;BME280;45672;51.612;5.536;2023-03-26T06:59:28;100048.25;;;7.12;100.00
59787;BME280;45672;51.612;5.536;2023-03-26T07:01:53;100044.41;;;7.06;100.00
59787;BME280;45672;51.612;5.536;2023-03-26T07:04:18;100052.19;;;7.07;100.00
59787;BME280;45672;51.612;5.536;2023-03-26T07:06:44;100025.97;;;6.96;100.00
59787;BME280;45672;51.612;5.536;2023-03-26T07:09:10;100047.59;;;7.10;100.00
59787;BME280;45672;51.612;5.536;2023-03-26T07:11:35;100034.69;;;7.06;100.00
59787;BME280;45672;51.612;5.536;2023-03-26T07:14:00;100034.53;;;7.08;100.00
59787;BME280;45672;51.612;5.536;2023-03-26T07:16:25;100013.75;;;6.95;100.00
59787;BME280;45672;51.612;5.536;2023-03-26T07:18:51;100037.84;;;7.10;100.00
59787;BME280;45672;51.612;5.536;2023-03-26T07:21:18;100023.72;;;7.01;100.00
59787;BME280;45672;51.612;5.536;2023-03-26T07:23:44;100015.38;;;6.96;100.00
59787;BME280;45672;51.612;5.536;2023-03-26T07:29:50;100021.97;;;6.92;100.00
59787;BME280;45672;51.612;5.536;2023-03-26T07:37:39;100027.19;;;7.02;100.00
59787;BME280;45672;51.612;5.536;2023-03-26T07:40:19;100026.81;;;6.97;100.00
59787;BME280;45672;51.612;5.536;2023-03-26T07:45:54;100019.25;;;7.02;100.00
59787;BME280;45672;51.612;5.536;2023-03-26T07:48:28;100021.28;;;7.08;100.00
59787;BME280;45672;51.612;5.536;2023-03-26T07:50:55;100022.66;;;7.12;100.00
59787;BME280;45672;51.612;5.536;2023-03-26T07:53:21;100014.03;;;7.10;100.00
59787;BME280;45672;51.612;5.536;2023-03-26T07:56:02;100012.59;;;7.16;100.00
59787;BME280;45672;51.612;5.536;2023-03-26T07:58:58;100012.28;;;7.19;100.00
59787;BME280;45672;51.612;5.536;2023-03-26T08:10:30;99998.13;;;7.28;100.00
59787;BME280;45672;51.612;5.536;2023-03-26T08:23:39;100006.13;;;7.36;100.00
59787;BME280;45672;51.612;5.536;2023-03-26T08:26:16;99997.81;;;7.31;100.00
59787;BME280;45672;51.612;5.536;2023-03-26T08:29:09;100002.94;;;7.33;100.00
59787;BME280;45672;51.612;5.536;2023-03-26T08:31:39;99995.16;;;7.31;100.00
59787;BME280;45672;51.612;5.536;2023-03-26T08:34:09;100001.00;;;7.35;100.00
59787;BME280;45672;51.612;5.536;2023-03-26T08:36:35;100001.66;;;7.37;100.00
59787;BME280;45672;51.612;5.536;2023-03-26T08:39:01;99980.59;;;7.27;100.00
59787;BME280;45672;51.612;5.536;2023-03-26T08:41:58;99997.19;;;7.37;100.00
59787;BME280;45672;51.612;5.536;2023-03-26T08:47:40;100003.06;;;7.49;100.00
59787;BME280;45672;51.612;5.536;2023-03-26T08:50:35;100005.41;;;7.52;100.00
59787;BME280;45672;51.612;5.536;2023-03-26T09:04:20;99989.88;;;7.31;100.00
59787;BME280;45672;51.612;5.536;2023-03-26T09:23:15;99982.81;;;7.40;100.00
59787;BME280;45672;51.612;5.536;2023-03-26T09:26:02;99982.19;;;7.46;100.00
59787;BME280;45672;51.612;5.536;2023-03-26T09:28:52;99981.09;;;7.57;100.00
59787;BME280;45672;51.612;5.536;2023-03-26T09:34:30;99977.97;;;7.62;100.00
59787;BME280;45672;51.612;5.536;2023-03-26T09:37:27;99975.16;;;7.63;100.00
59787;BME280;45672;51.612;5.536;2023-03-26T09:40:14;99981.31;;;7.64;100.00
59787;BME280;45672;51.612;5.536;2023-03-26T09:51:22;99975.22;;;7.71;100.00
59787;BME280;45672;51.612;5.536;2023-03-26T09:54:13;99978.88;;;7.70;100.00
59787;BME280;45672;51.612;5.536;2023-03-26T09:59:59;99972.72;;;7.70;100.00
59787;BME280;45672;51.612;5.536;2023-03-26T10:03:32;99970.94;;;7.70;100.00
59787;BME280;45672;51.612;5.536;2023-03-26T10:06:15;99974.50;;;7.61;100.00
59787;BME280;45672;51.612;5.536;2023-03-26T10:14:07;99974.47;;;7.53;100.00
59787;BME280;45672;51.612;5.536;2023-03-26T10:16:47;99970.06;;;7.35;100.00
59787;BME280;45672;51.612;5.536;2023-03-26T10:19:41;99978.63;;;7.29;100.00
59787;BME280;45672;51.612;5.536;2023-03-26T10:22:42;99943.31;;;7.20;100.00
59787;BME280;45672;51.612;5.536;2023-03-26T10:28:18;99980.47;;;7.63;100.00
59787;BME280;45672;51.612;5.536;2023-03-26T10:34:14;99987.00;;;7.77;100.00
59787;BME280;45672;51.612;5.536;2023-03-26T10:40:07;99983.16;;;7.71;100.00
59787;BME280;45672;51.612;5.536;2023-03-26T10:43:13;99982.69;;;7.76;100.00
59787;BME280;45672;51.612;5.536;2023-03-26T10:51:24;99984.00;;;7.46;100.00
59787;BME280;45672;51.612;5.536;2023-03-26T10:53:57;99993.84;;;7.53;100.00
59787;BME280;45672;51.612;5.536;2023-03-26T10:56:33;99991.56;;;7.32;100.00
59787;BME280;45672;51.612;5.536;2023-03-26T10:59:04;99990.13;;;7.20;100.00
59787;BME280;45672;51.612;5.536;2023-03-26T11:01:45;99990.94;;;7.20;100.00
59787;BME280;45672;51.612;5.536;2023-03-26T11:07:05;99999.28;;;7.25;100.00
59787;BME280;45672;51.612;5.536;2023-03-26T11:09:43;100001.28;;;7.32;100.00
59787;BME280;45672;51.612;5.536;2023-03-26T11:12:25;99999.00;;;7.37;100.00
59787;BME280;45672;51.612;5.536;2023-03-26T11:15:05;100007.78;;;7.37;100.00
59787;BME280;45672;51.612;5.536;2023-03-26T11:17:48;100002.16;;;7.40;100.00
59787;BME280;45672;51.612;5.536;2023-03-26T11:20:37;100015.41;;;7.40;100.00
59787;BME280;45672;51.612;5.536;2023-03-26T11:26:04;100018.41;;;7.46;100.00
59787;BME280;45672;51.612;5.536;2023-03-26T11:28:53;100022.38;;;7.41;100.00
59787;BME280;45672;51.612;5.536;2023-03-26T11:34:15;100027.59;;;7.33;100.00
59787;BME280;45672;51.612;5.536;2023-03-26T11:36:48;100023.91;;;7.26;100.00
59787;BME280;45672;51.612;5.536;2023-03-26T11:39:22;100015.88;;;7.36;100.00
59787;BME280;45672;51.612;5.536;2023-03-26T11:41:51;100018.69;;;7.34;100.00
59787;BME280;45672;51.612;5.536;2023-03-26T11:44:28;100022.28;;;7.33;100.00
59787;BME280;45672;51.612;5.536;2023-03-26T11:46:59;100008.72;;;7.28;100.00
59787;BME280;45672;51.612;5.536;2023-03-26T11:49:28;100030.47;;;7.40;100.00
59787;BME280;45672;51.612;5.536;2023-03-26T11:51:54;100031.66;;;7.46;100.00
59787;BME280;45672;51.612;5.536;2023-03-26T11:54:20;100028.25;;;7.53;100.00
59787;BME280;45672;51.612;5.536;2023-03-26T11:56:56;100037.72;;;7.64;100.00
59787;BME280;45672;51.612;5.536;2023-03-26T11:59:26;100030.50;;;7.74;100.00
59787;BME280;45672;51.612;5.536;2023-03-26T12:01:58;100032.22;;;7.84;100.00
59787;BME280;45672;51.612;5.536;2023-03-26T12:04:43;100028.00;;;7.99;100.00
59787;BME280;45672;51.612;5.536;2023-03-26T12:07:17;100034.50;;;8.05;100.00
59787;BME280;45672;51.612;5.536;2023-03-26T12:09:50;100035.31;;;8.05;100.00
59787;BME280;45672;51.612;5.536;2023-03-26T12:12:17;100042.06;;;8.00;100.00
59787;BME280;45672;51.612;5.536;2023-03-26T12:14:43;100034.28;;;7.98;100.00
59787;BME280;45672;51.612;5.536;2023-03-26T12:17:36;100030.22;;;8.12;100.00
59787;BME280;45672;51.612;5.536;2023-03-26T12:22:53;100025.56;;;8.14;100.00
59787;BME280;45672;51.612;5.536;2023-03-26T12:25:27;100030.75;;;8.24;100.00
59787;BME280;45672;51.612;5.536;2023-03-26T12:28:17;100035.72;;;8.19;100.00
59787;BME280;45672;51.612;5.536;2023-03-26T12:31:02;100042.47;;;8.13;100.00
59787;BME280;45672;51.612;5.536;2023-03-26T12:33:30;100037.47;;;8.02;100.00
59787;BME280;45672;51.612;5.536;2023-03-26T12:36:14;100051.31;;;7.96;100.00
59787;BME280;45672;51.612;5.536;2023-03-26T12:38:40;100023.25;;;7.76;100.00
59787;BME280;45672;51.612;5.536;2023-03-26T12:46:30;100058.38;;;8.13;100.00
59787;BME280;45672;51.612;5.536;2023-03-26T12:49:00;100054.38;;;8.09;100.00
59787;BME280;45672;51.612;5.536;2023-03-26T12:51:49;100059.63;;;8.01;100.00
59787;BME280;45672;51.612;5.536;2023-03-26T12:54:50;100060.66;;;8.08;100.00
59787;BME280;45672;51.612;5.536;2023-03-26T12:57:24;100060.19;;;8.13;100.00
59787;BME280;45672;51.612;5.536;2023-03-26T13:00:24;100067.84;;;8.24;100.00
59787;BME280;45672;51.612;5.536;2023-03-26T13:06:00;100065.88;;;8.26;100.00
59787;BME280;45672;51.612;5.536;2023-03-26T13:08:50;100075.47;;;8.27;100.00
59787;BME280;45672;51.612;5.536;2023-03-26T13:11:45;100076.13;;;8.21;100.00
59787;BME280;45672;51.612;5.536;2023-03-26T13:22:30;100089.69;;;7.91;100.00
59787;BME280;45672;51.612;5.536;2023-03-26T13:30:32;100088.22;;;7.45;100.00
59787;BME280;45672;51.612;5.536;2023-03-26T13:36:04;100092.16;;;7.40;100.00
59787;BME280;45672;51.612;5.536;2023-03-26T13:41:31;100104.25;;;7.61;100.00
59787;BME280;45672;51.612;5.536;2023-03-26T13:44:05;100101.84;;;7.50;100.00
59787;BME280;45672;51.612;5.536;2023-03-26T13:47:02;100106.63;;;7.72;100.00
59787;BME280;45672;51.612;5.536;2023-03-26T13:49:36;100103.16;;;7.72;100.00
59787;BME280;45672;51.612;5.536;2023-03-26T13:52:28;100089.78;;;7.73;100.00
59787;BME280;45672;51.612;5.536;2023-03-26T13:57:46;100112.41;;;7.68;100.00
59787;BME280;45672;51.612;5.536;2023-03-26T14:00:18;100111.88;;;7.46;100.00
59787;BME280;45672;51.612;5.536;2023-03-26T14:03:00;100108.25;;;7.47;100.00
59787;BME280;45672;51.612;5.536;2023-03-26T14:05:41;100126.44;;;7.42;100.00
59787;BME280;45672;51.612;5.536;2023-03-26T14:08:20;100119.63;;;7.39;100.00
59787;BME280;45672;51.612;5.536;2023-03-26T14:10:51;100127.88;;;7.36;100.00
59787;BME280;45672;51.612;5.536;2023-03-26T14:14:02;100130.22;;;7.39;100.00
59787;BME280;45672;51.612;5.536;2023-03-26T14:16:37;100141.53;;;7.50;100.00
59787;BME280;45672;51.612;5.536;2023-03-26T14:19:21;100140.25;;;7.54;100.00
59787;BME280;45672;51.612;5.536;2023-03-26T14:22:17;100145.31;;;7.47;100.00
59787;BME280;45672;51.612;5.536;2023-03-26T14:31:05;100165.81;;;7.27;100.00
59787;BME280;45672;51.612;5.536;2023-03-26T14:33:57;100173.28;;;7.14;100.00
59787;BME280;45672;51.612;5.536;2023-03-26T14:42:01;100187.66;;;7.11;100.00
59787;BME280;45672;51.612;5.536;2023-03-26T14:47:42;100203.38;;;7.13;100.00
59787;BME280;45672;51.612;5.536;2023-03-26T14:50:39;100181.63;;;6.91;100.00
59787;BME280;45672;51.612;5.536;2023-03-26T14:53:17;100203.72;;;7.00;100.00
59787;BME280;45672;51.612;5.536;2023-03-26T15:04:55;100205.19;;;7.12;100.00
59787;BME280;45672;51.612;5.536;2023-03-26T15:07:46;100212.94;;;7.23;100.00
59787;BME280;45672;51.612;5.536;2023-03-26T15:10:24;100220.00;;;7.23;100.00
59787;BME280;45672;51.612;5.536;2023-03-26T15:13:25;100220.75;;;7.15;100.00
59787;BME280;45672;51.612;5.536;2023-03-26T15:27:13;100261.22;;;7.53;100.00
59787;BME280;45672;51.612;5.536;2023-03-26T15:30:08;100241.53;;;7.38;100.00
59787;BME280;45672;51.612;5.536;2023-03-26T15:41:15;100280.47;;;7.46;100.00
59787;BME280;45672;51.612;5.536;2023-03-26T15:49:17;100286.00;;;7.52;100.00
59787;BME280;45672;51.612;5.536;2023-03-26T15:51:55;100299.97;;;7.45;100.00
59787;BME280;45672;51.612;5.536;2023-03-26T16:02:26;100321.25;;;7.53;100.00
59787;BME280;45672;51.612;5.536;2023-03-26T16:05:17;100324.50;;;7.47;100.00
59787;BME280;45672;51.612;5.536;2023-03-26T16:10:59;100336.41;;;7.33;100.00
59787;BME280;45672;51.612;5.536;2023-03-26T16:13:47;100330.31;;;7.22;100.00
59787;BME280;45672;51.612;5.536;2023-03-26T16:18:40;100347.16;;;7.21;100.00
59787;BME280;45672;51.612;5.536;2023-03-26T16:26:24;100364.63;;;7.04;100.00
59787;BME280;45672;51.612;5.536;2023-03-26T16:31:20;100372.53;;;7.14;100.00
59787;BME280;45672;51.612;5.536;2023-03-26T16:36:42;100383.44;;;7.01;100.00
59787;BME280;45672;51.612;5.536;2023-03-26T16:46:55;100414.06;;;7.04;100.00
59787;BME280;45672;51.612;5.536;2023-03-26T16:55:37;100449.28;;;6.95;100.00
59787;BME280;45672;51.612;5.536;2023-03-26T17:03:55;100459.47;;;6.89;100.00
59787;BME280;45672;51.612;5.536;2023-03-26T17:14:38;100493.44;;;6.75;100.00
59787;BME280;45672;51.612;5.536;2023-03-26T17:25:24;100516.53;;;6.72;100.00
59787;BME280;45672;51.612;5.536;2023-03-26T17:28:26;100526.56;;;6.79;100.00
59787;BME280;45672;51.612;5.536;2023-03-26T17:31:02;100537.41;;;6.76;100.00
59787;BME280;45672;51.612;5.536;2023-03-26T17:33:34;100531.00;;;6.68;100.00
59787;BME280;45672;51.612;5.536;2023-03-26T17:41:04;100553.81;;;6.60;98.16
59787;BME280;45672;51.612;5.536;2023-03-26T17:43:47;100565.03;;;6.52;97.82
59787;BME280;45672;51.612;5.536;2023-03-26T17:49:30;100580.06;;;6.42;98.83